x

North Equatorial Two - 890 Nm East Of Martinique (41041) Wave Buoy

11:50am - Sat 23rd Aug 2014 All times are UTC.

  • Sig Wave height 3.6ft
  • Swell Direction
  • Peak Period 9s
  • Average Period 6s
  • Wind
    9mph, 11mph gusts
  • Sea Temp 81°f
  • Air Temp 80°f
  • Sea Pressure 1014.3mb

More Historic Weather Station data

Upgrade to MSW Pro to gain access to the past 30 days of data for over 8000 Wavebouys and Weather Stations around the globe.

Join Pro

Comparision Forecast

View Surf forecast
   
Sat 08/23 11:50am 3.5ft 9s 6s 9 11 mph 1014.3mb 81f 80f
10:50am 3.5ft 9s 6s 11 13 mph 1013.6mb 81f 80f
9:50am 3.5ft 9s 5s 13 16 mph 1013.1mb 81f 80f
8:50am 3.5ft 8s 6s 9 11 mph 1012.4mb 81f 79f
7:50am 4ft 9s 6s 11 13 mph 1012.2mb 81f 79f
6:50am 3.5ft 9s 6s 11 13 mph 1012.1mb 81f 79f
5:50am 3.5ft 8s 6s 9 11 mph 1012.5mb 81f 79f
4:50am 3.5ft 9s 6s 11
mph
1012.7mb 81f 80f
3:50am 3.5ft 8s 6s 13
mph
1013.6mb 81f 80f
2:50am 4ft 8s 6s 9 11 mph 1014.2mb 81f 80f
1:50am 3.5ft 8s 6s 11 13 mph 1014.3mb 81f 80f
12:50am 3.5ft 8s 6s 11 13 mph 1014.1mb 81f 80f
Fri 08/22 11:50pm 3.5ft 9s 6s 11 13 mph 1013.8mb 81f 80f
10:50pm 3.5ft 9s 6s 9 11 mph 1013.3mb 82f 80f
9:50pm 3.5ft 9s 6s 9 11 mph 1012.9mb 82f 80f
8:50pm 3.5ft 9s 6s 11
mph
1012.5mb 82f 80f
7:50pm 4ft 8s 6s 9 11 mph 1012.5mb 82f 80f
6:50pm 4ft 8s 6s 11 13 mph 1012.5mb 82f 80f
5:50pm 4.5ft 9s 6s 11
mph
1012.9mb 82f 80f
4:50pm 4.5ft 9s 6s 11 13 mph 1013.3mb 82f 80f
3:50pm 4.5ft 8s 6s 11 13 mph 1013.9mb 82f 80f
2:50pm 4.5ft 8s 6s 9 11 mph 1014.6mb 82f 80f
1:50pm 5ft 7s 6s 9 11 mph 1015.4mb 81f 80f
12:50pm 5ft 8s 6s 11 13 mph 1015.5mb 81f 80f
11:50am 4.5ft 8s 6s 11 13 mph 1015.2mb 81f 80f
10:50am 5ft 7s 6s 13 16 mph 1014.8mb 81f 80f
9:50am 5ft 7s 5s 13 16 mph 1014.4mb 81f 80f
7:50am 5ft 7s 5s 16 18 mph 1014mb 81f 79f
6:50am 5ft 7s 5s 13 18 mph 1013.9mb 81f 79f
5:50am 5ft 8s 5s 16 20 mph 1013.9mb 81f 80f
4:50am 5ft 8s 6s 16 20 mph 1014.2mb 81f 80f
3:50am 5ft 8s 6s 11 13 mph 1015.1mb 81f 79f
2:50am 5ft 8s 5s 11 16 mph 1015.8mb 82f 78f
1:50am 5ft 7s 5s 18 22 mph 1016.2mb 81f 79f
12:50am 5ft 8s 6s 20 25 mph 1016.1mb 81f 79f
Thu 08/21 11:50pm 5ft 8s 6s 13 16 mph 1015.6mb 82f 80f
10:50pm 5ft 8s 6s 13 16 mph 1015.2mb 82f 80f
9:50pm 5ft 7s 6s 11 13 mph 1014.8mb 82f 80f
8:50pm 5.5ft 8s 7s 11 13 mph 1014.5mb 82f 81f
7:50pm 5ft 7s 6s 11 13 mph 1014.2mb 83f 81f
6:50pm 5ft 8s 6s 9 11 mph 1014.4mb 83f 81f
5:50pm 5ft 8s 6s 7 9 mph 1015mb 83f 81f
4:50pm 5ft 8s 6s 7 9 mph 1015.5mb 83f 80f
3:50pm 4.5ft 8s 6s 4 7 mph 1016.3mb 83f 80f
2:50pm 5ft 8s 6s 4 7 mph 1016.9mb 83f 80f
1:50pm 5ft 8s 7s 4 7 mph 1017.4mb 82f 80f
12:50pm 5ft 8s 6s 7 9 mph 1017.4mb 82f 80f
11:50am 4.5ft 8s 6s 4 7 mph 1017.4mb 81f 80f
10:50am 4.5ft 8s 6s 4
mph
1017.1mb 81f 79f
9:50am 5ft 8s 6s 11 13 mph 1016.8mb 81f 78f
8:50am 5ft 8s 6s  -  2 mph 1016.5mb 81f 79f
7:50am 5ft 8s 6s 2
mph
1016.3mb 81f 80f
6:50am 5.5ft 7s 6s 2 4 mph 1016.1mb 81f 80f
5:50am 5.5ft 8s 6s 4
mph
1015.9mb 81f 80f
4:50am 5.5ft 8s 6s 4 7 mph 1016.3mb 81f 80f
3:50am 5.5ft 8s 6s 7 9 mph 1016.9mb 81f 80f
2:50am 6ft 8s 6s 7 9 mph 1017.3mb 81f 80f
1:50am 5.5ft 8s 6s 9 11 mph 1017.5mb 81f 80f
12:50am 5ft 8s 6s 11 13 mph 1017.4mb 81f 80f
Wed 08/20 11:50pm 5ft 8s 6s 11 13 mph 1016.7mb 81f 80f
10:50pm 5.5ft 7s 6s 9
mph
1016.4mb 81f 80f
9:50pm 5ft 8s 6s 9
mph
1015.6mb 81f 80f
8:50pm 5ft 7s 6s 9
mph
1014.9mb 81f 80f
7:50pm 5ft 8s 6s 7 9 mph 1014.5mb 82f 81f
6:50pm 6ft 9s 6s 9
mph
1014.2mb 82f 80f
5:50pm 6ft 8s 6s 9 11 mph 1014.5mb 81f 80f
3:50pm 7ft 8s 6s 13 18 mph 1014.8mb 81f 80f
2:50pm 6ft 8s 6s 16 18 mph 1014.9mb 81f 78f
1:50pm 6.5ft 8s 6s 16 18 mph 1014.7mb 81f 80f
11:50am 5.5ft 8s 6s 4 9 mph 1014.1mb 81f 77f
10:50am 5.5ft 7s 6s 16 20 mph 1013.5mb 81f 78f
9:50am 5ft 9s 5s 16 18 mph 1012.9mb 81f 77f
8:50am 5ft 8s 6s 13 16 mph 1012.7mb 81f 79f
7:50am 5ft 8s 5s 16 18 mph 1012.3mb 81f 79f
6:50am 5ft 7s 5s 18 22 mph 1011.9mb 81f 80f
5:50am 5.5ft 8s 6s 16 20 mph 1012mb 81f 80f
4:50am 6ft 6s 6s 18 20 mph 1012.3mb 81f 80f
3:50am 5ft 9s 6s 18 22 mph 1013.2mb 81f 80f
2:50am 6ft 8s 6s 18 22 mph 1013.8mb 81f 80f
1:50am 5ft 9s 6s 18 20 mph 1013.9mb 81f 80f
12:50am 6ft 8s 6s 16 20 mph 1013.9mb 81f 80f
Tue 08/19 11:50pm 5ft 8s 6s 16 20 mph 1013.7mb 81f 80f
10:50pm 5ft 7s 6s 16 20 mph 1013mb 81f 80f
9:50pm 5ft 7s 5s 16 18 mph 1012.5mb 81f 80f
8:50pm 5ft 8s 5s 16 18 mph 1012.1mb 81f 80f
7:50pm 5.5ft 9s 5s 16 20 mph 1011.6mb 81f 80f
6:50pm 5.5ft 6s 5s 18 20 mph 1011.4mb 81f 80f
5:50pm 5.5ft 7s 5s 16 20 mph 1011.4mb 81f 80f
4:50pm 5ft 9s 5s 18 20 mph 1011.6mb 81f 80f
3:50pm 5ft 9s 5s 18 20 mph 1012.2mb 81f 80f
2:50pm 5.5ft 9s 5s 18 22 mph 1012.9mb 81f 78f
1:50pm 6ft 9s 6s 18 20 mph 1013mb 81f 80f